Crocker, Iowa
Current Conditions -  °F | °C
As of 11:35 AM on Saturday 25 Oct 2014 (Local Time) from KIKV Reporting Station
Clear Clear  
Wind Chill: 64°   Ceiling: Unl
Heat Index: 64°   Visibility: 10mi
Dew Point: 41°   Wind: 7mph
Humidity: 42%   Direction: 20°NNE
Pressure: 30.1"   Gusts: NA
Location:  41.8061°N, 93.7113°W
Report Text: KIKV 251635Z AUTO 02006KT 10SM CLR 18/05 A3010 RMK AO2
Loading
Personal Weather Stations






























Interactive Weather Map
Tropical Storm Tracking
New forecast layout! Learn more

10-Day Weather Forecast

Advertisements
Track Severe Weather on mobile